createdAt,value
2019-01-06T00:00:55.259Z,17.57
2019-01-06T00:03:40.472Z,16.63
2019-01-06T00:06:49.069Z,13.77
2019-01-06T00:09:47.711Z,20.33
2019-01-06T00:12:48.118Z,13.03
2019-01-06T00:15:43.555Z,18.83
2019-01-06T00:18:32.063Z,15.83
2019-01-06T00:21:21.495Z,15.43
2019-01-06T00:24:19.007Z,15.30
2019-01-06T00:27:12.488Z,15.60
2019-01-06T00:30:03.123Z,17.97
2019-01-06T00:33:00.318Z,16.03
2019-01-06T00:36:02.475Z,14.30
2019-01-06T00:38:53.676Z,17.43
2019-01-06T00:41:49.643Z,19.03
2019-01-06T00:44:40.311Z,20.50
2019-01-06T00:47:32.096Z,17.60
2019-01-06T00:50:23.934Z,12.97
2019-01-06T00:53:15.461Z,17.63
2019-01-06T00:56:12.274Z,17.50
2019-01-06T00:59:04.154Z,19.63
2019-01-06T01:01:55.664Z,18.13
2019-01-06T01:05:06.635Z,21.63
2019-01-06T01:07:57.985Z,19.13
2019-01-06T01:11:05.320Z,19.80
2019-01-06T01:13:57.251Z,23.30
2019-01-06T01:16:53.956Z,21.47
2019-01-06T01:19:48.278Z,20.07
2019-01-06T01:22:40.570Z,21.17
2019-01-06T01:25:32.293Z,18.93
2019-01-06T01:28:25.396Z,25.73
2019-01-06T01:31:30.057Z,25.57
2019-01-06T01:34:22.962Z,24.70
2019-01-06T01:37:18.940Z,23.07
2019-01-06T01:40:14.700Z,21.90
2019-01-06T01:43:09.590Z,23.77
2019-01-06T01:45:59.385Z,19.50
2019-01-06T01:49:05.814Z,23.00
2019-01-06T01:51:57.358Z,22.13
2019-01-06T01:54:50.781Z,21.70
2019-01-06T01:57:48.874Z,21.23
2019-01-06T02:00:54.672Z,19.90
2019-01-06T02:03:53.102Z,20.87
2019-01-06T02:06:52.894Z,23.40
2019-01-06T02:09:46.284Z,21.27
2019-01-06T02:12:40.197Z,24.03
2019-01-06T02:15:24.469Z,19.33
2019-01-06T02:18:17.936Z,23.73
2019-01-06T02:21:26.696Z,26.70
2019-01-06T02:24:20.586Z,22.80
2019-01-06T02:27:17.645Z,20.23
2019-01-06T02:30:25.408Z,20.43
2019-01-06T02:33:17.662Z,23.73
2019-01-06T02:36:25.861Z,19.27
2019-01-06T02:39:18.046Z,16.67
2019-01-06T02:42:10.038Z,26.90
2019-01-06T02:45:14.868Z,21.00
2019-01-06T02:48:07.521Z,26.17
2019-01-06T02:51:03.635Z,20.90
2019-01-06T02:53:55.534Z,22.47
2019-01-06T02:56:56.962Z,21.63
2019-01-06T02:59:49.278Z,20.73
2019-01-06T03:02:41.188Z,24.97
2019-01-06T03:05:49.116Z,26.10
2019-01-06T03:08:41.641Z,21.90
2019-01-06T03:11:33.487Z,26.37
2019-01-06T03:14:22.469Z,20.90
2019-01-06T03:17:18.203Z,19.17
2019-01-06T03:20:09.968Z,22.17
2019-01-06T03:23:02.458Z,19.83
2019-01-06T03:26:01.394Z,19.30
2019-01-06T03:28:53.043Z,19.27
2019-01-06T03:31:34.170Z,19.93
2019-01-06T03:34:30.175Z,17.80
2019-01-06T03:37:31.462Z,21.00
2019-01-06T03:40:24.661Z,22.30
2019-01-06T03:43:17.255Z,20.53
2019-01-06T03:46:05.636Z,20.87
2019-01-06T03:49:13.314Z,17.73
2019-01-06T03:52:05.335Z,11.77
2019-01-06T03:54:59.876Z,18.53
2019-01-06T03:57:51.230Z,18.27
2019-01-06T04:00:59.717Z,17.77
2019-01-06T04:03:52.392Z,17.00
2019-01-06T04:06:41.607Z,21.57
2019-01-06T04:09:34.314Z,14.97
2019-01-06T04:12:29.915Z,17.60
2019-01-06T04:15:22.676Z,18.40
2019-01-06T04:18:13.877Z,14.13
2019-01-06T04:21:14.305Z,16.63
2019-01-06T04:24:06.315Z,14.23
2019-01-06T04:27:01.370Z,14.57
2019-01-06T04:29:52.427Z,17.67
2019-01-06T04:32:54.303Z,17.20
2019-01-06T04:36:04.939Z,18.33
2019-01-06T04:39:15.584Z,19.53
2019-01-06T04:42:06.680Z,18.37
2019-01-06T04:45:00.374Z,17.90
2019-01-06T04:47:54.366Z,18.63
2019-01-06T04:50:55.789Z,20.27
2019-01-06T04:53:54.198Z,13.20
2019-01-06T04:56:49.985Z,17.10
2019-01-06T04:59:51.281Z,17.27
2019-01-06T05:02:44.522Z,18.40
2019-01-06T05:05:37.637Z,15.10
2019-01-06T05:08:45.480Z,15.07
2019-01-06T05:11:49.493Z,13.60
2019-01-06T05:14:41.719Z,20.50
2019-01-06T05:17:40.573Z,17.73
2019-01-06T05:20:33.132Z,19.00
2019-01-06T05:23:41.254Z,14.73
2019-01-06T05:26:40.671Z,13.37
2019-01-06T05:29:46.557Z,22.17
2019-01-06T05:32:41.983Z,18.53
2019-01-06T05:35:37.595Z,16.40
2019-01-06T05:38:28.961Z,17.60
2019-01-06T05:41:25.020Z,18.53
2019-01-06T05:44:15.558Z,15.27
2019-01-06T05:47:20.676Z,22.50
2019-01-06T05:50:22.469Z,14.33
2019-01-06T05:53:26.921Z,18.77
2019-01-06T05:56:18.119Z,17.73
2019-01-06T05:59:01.184Z,17.03
2019-01-06T06:01:55.447Z,24.37
2019-01-06T06:04:48.817Z,18.07
2019-01-06T06:07:53.285Z,21.30
2019-01-06T06:10:44.951Z,15.37
2019-01-06T06:13:37.270Z,16.93
2019-01-06T06:16:30.562Z,16.23
2019-01-06T06:19:26.856Z,22.27
2019-01-06T06:22:16.211Z,16.07
2019-01-06T06:25:23.650Z,22.27
2019-01-06T06:28:24.609Z,15.93
2019-01-06T06:31:23.659Z,20.60
2019-01-06T06:34:13.483Z,19.90
2019-01-06T06:36:57.878Z,19.97
2019-01-06T06:39:52.402Z,18.17
2019-01-06T06:42:52.976Z,19.00
2019-01-06T06:45:43.017Z,17.40
2019-01-06T06:48:38.447Z,14.47
2019-01-06T06:51:35.960Z,12.40
2019-01-06T06:54:26.162Z,10.23
2019-01-06T06:57:52.859Z,15.30
2019-01-06T07:00:54.075Z,14.47
2019-01-06T07:03:51.119Z,16.13
2019-01-06T07:06:40.819Z,16.60
2019-01-06T07:09:36.445Z,15.10
2019-01-06T07:12:40.058Z,20.17
2019-01-06T07:15:31.973Z,16.63
2019-01-06T07:18:28.262Z,16.83
2019-01-06T07:21:20.702Z,15.20
2019-01-06T07:24:25.893Z,15.53
2019-01-06T07:27:17.851Z,16.40
2019-01-06T07:30:05.987Z,18.23
2019-01-06T07:33:05.278Z,19.10
2019-01-06T07:36:08.200Z,19.60
2019-01-06T07:39:01.843Z,23.73
2019-01-06T07:42:00.518Z,17.63
2019-01-06T07:44:44.768Z,22.33
2019-01-06T07:47:51.660Z,23.83
2019-01-06T07:50:39.307Z,30.80
2019-01-06T07:53:45.211Z,22.40
2019-01-06T07:56:40.019Z,22.83
2019-01-06T07:59:23.778Z,20.43
2019-01-06T08:02:22.608Z,23.87
2019-01-06T08:05:15.601Z,22.77
2019-01-06T08:08:12.230Z,23.57
2019-01-06T08:11:15.478Z,22.13
2019-01-06T08:14:07.944Z,19.97
2019-01-06T08:16:59.975Z,24.33
2019-01-06T08:19:55.007Z,24.07
2019-01-06T08:22:47.122Z,22.90
2019-01-06T08:25:40.427Z,19.03
2019-01-06T08:28:33.501Z,21.27
2019-01-06T08:31:27.976Z,25.43
2019-01-06T08:34:36.204Z,20.67
2019-01-06T08:37:27.330Z,19.83
2019-01-06T08:40:26.735Z,21.83
2019-01-06T08:43:22.176Z,18.30
2019-01-06T08:46:31.097Z,19.27
2019-01-06T08:49:23.535Z,17.70
2019-01-06T08:52:15.770Z,15.33
2019-01-06T08:55:04.436Z,17.27
2019-01-06T08:58:13.556Z,17.50
2019-01-06T09:01:22.915Z,15.70
2019-01-06T09:04:23.544Z,16.40
2019-01-06T09:07:37.542Z,16.93
2019-01-06T09:10:32.194Z,20.13
2019-01-06T09:13:28.452Z,16.73
2019-01-06T09:16:22.465Z,17.37
2019-01-06T09:19:15.184Z,18.17
2019-01-06T09:22:05.442Z,15.37
2019-01-06T09:25:14.117Z,17.30
2019-01-06T09:28:08.431Z,14.67
2019-01-06T09:30:58.764Z,15.37
2019-01-06T09:33:51.285Z,14.70
2019-01-06T09:36:53.280Z,20.83
2019-01-06T09:39:43.234Z,14.93
2019-01-06T09:42:37.692Z,12.50
2019-01-06T09:45:44.109Z,13.83
2019-01-06T09:48:51.705Z,13.53
2019-01-06T09:51:55.804Z,18.00
2019-01-06T09:55:09.618Z,14.27
2019-01-06T09:58:07.820Z,16.70
2019-01-06T10:01:00.596Z,14.57
2019-01-06T10:04:13.358Z,18.47
2019-01-06T10:07:20.583Z,21.50
2019-01-06T10:10:11.743Z,11.53
2019-01-06T10:13:16.161Z,14.80
2019-01-06T10:16:09.169Z,17.10
2019-01-06T10:19:04.631Z,14.73
2019-01-06T10:22:00.240Z,14.57
2019-01-06T10:24:56.251Z,9.43
2019-01-06T10:27:57.090Z,12.57
2019-01-06T10:33:49.254Z,12.90
2019-01-06T10:36:48.153Z,14.17
2019-01-06T10:39:47.022Z,11.87
2019-01-06T10:42:54.596Z,13.43
2019-01-06T10:45:39.984Z,11.07
2019-01-06T10:48:30.131Z,20.40
2019-01-06T10:51:21.008Z,12.37
2019-01-06T10:54:19.315Z,13.13
2019-01-06T10:57:21.721Z,13.97
2019-01-06T11:00:22.196Z,16.37
2019-01-06T11:03:07.581Z,12.60
2019-01-06T11:05:59.822Z,14.57
2019-01-06T11:09:04.049Z,17.37
2019-01-06T11:11:55.518Z,14.30
2019-01-06T11:14:42.149Z,12.27
2019-01-06T11:17:34.043Z,16.73
2019-01-06T11:20:49.883Z,13.40
2019-01-06T11:23:41.058Z,15.47
2019-01-06T11:26:37.772Z,15.50
2019-01-06T11:29:32.316Z,18.23
2019-01-06T11:32:32.637Z,15.53
2019-01-06T11:35:24.040Z,11.70
2019-01-06T11:38:15.828Z,13.13
2019-01-06T11:41:11.078Z,18.23
2019-01-06T11:44:18.607Z,12.00
2019-01-06T11:47:09.572Z,15.30
2019-01-06T11:49:58.539Z,9.87
2019-01-06T11:52:54.277Z,12.30
2019-01-06T11:55:45.388Z,11.70
2019-01-06T11:58:37.437Z,12.10
2019-01-06T12:01:35.057Z,11.13
2019-01-06T12:04:46.057Z,10.53
2019-01-06T12:07:58.450Z,11.47
2019-01-06T12:10:57.566Z,7.17
2019-01-06T12:13:51.763Z,11.50
2019-01-06T12:16:47.536Z,10.00
2019-01-06T12:19:54.803Z,11.67
2019-01-06T12:23:00.275Z,7.90
2019-01-06T12:25:58.856Z,11.00
2019-01-06T12:28:46.730Z,8.67
2019-01-06T12:31:35.339Z,8.07
2019-01-06T12:34:27.747Z,8.40
2019-01-06T12:37:35.272Z,10.50
2019-01-06T12:40:28.897Z,8.73
2019-01-06T12:43:18.751Z,6.30
2019-01-06T12:46:24.329Z,7.10
2019-01-06T12:49:16.812Z,7.93
2019-01-06T12:52:20.687Z,6.23
2019-01-06T12:55:28.448Z,9.70
2019-01-06T12:58:36.092Z,10.50
2019-01-06T13:01:28.425Z,7.67
2019-01-06T13:04:33.290Z,8.53
2019-01-06T13:07:16.166Z,9.17
2019-01-06T13:10:14.789Z,6.47
2019-01-06T13:13:10.522Z,7.47
2019-01-06T13:16:12.427Z,9.47
2019-01-06T13:19:06.813Z,10.97
2019-01-06T13:22:01.028Z,7.53
2019-01-06T13:24:50.630Z,5.83
2019-01-06T13:27:46.337Z,9.00
2019-01-06T13:30:34.203Z,9.70
2019-01-06T13:33:31.759Z,8.43
2019-01-06T13:36:33.920Z,7.80
2019-01-06T13:39:17.582Z,7.60
2019-01-06T13:42:09.944Z,6.93
2019-01-06T13:45:01.039Z,8.23
2019-01-06T13:47:57.233Z,10.33
2019-01-06T13:50:46.929Z,6.33
2019-01-06T13:53:44.833Z,5.03
2019-01-06T13:56:34.426Z,6.60
2019-01-06T13:59:22.484Z,5.33
2019-01-06T14:02:12.855Z,7.00
2019-01-06T14:04:56.865Z,7.77
2019-01-06T14:08:01.517Z,6.53
2019-01-06T14:10:57.089Z,7.27
2019-01-06T14:13:46.702Z,6.53
2019-01-06T14:16:41.945Z,8.17
2019-01-06T14:19:36.968Z,6.27
2019-01-06T14:22:27.817Z,5.80
2019-01-06T14:25:40.566Z,6.60
2019-01-06T14:28:38.181Z,7.87
2019-01-06T14:31:56.083Z,8.47
2019-01-06T14:35:02.114Z,8.80
2019-01-06T14:37:55.084Z,7.43
2019-01-06T14:41:02.943Z,7.23
2019-01-06T14:43:56.479Z,11.67
2019-01-06T14:46:44.883Z,5.63
2019-01-06T14:49:34.194Z,4.77
2019-01-06T14:52:31.495Z,6.80
2019-01-06T14:55:19.754Z,7.27
2019-01-06T14:58:10.051Z,4.67
2019-01-06T15:01:17.601Z,10.63
2019-01-06T15:04:23.025Z,4.00
2019-01-06T15:07:12.241Z,6.63
2019-01-06T15:10:08.812Z,7.97
2019-01-06T15:12:58.419Z,6.27
2019-01-06T15:16:00.251Z,6.80
2019-01-06T15:18:48.040Z,5.53
2019-01-06T15:21:43.358Z,7.00
2019-01-06T15:24:51.406Z,5.93
2019-01-06T15:27:42.364Z,6.77
2019-01-06T15:30:46.989Z,8.03
2019-01-06T15:33:35.204Z,7.30
2019-01-06T15:36:23.520Z,5.27
2019-01-06T15:39:20.818Z,10.10
2019-01-06T15:42:19.412Z,7.27
2019-01-06T15:45:14.084Z,7.57
2019-01-06T15:48:25.140Z,10.87
2019-01-06T15:51:11.804Z,10.53
2019-01-06T15:54:02.613Z,9.80
2019-01-06T15:56:53.979Z,9.17
2019-01-06T15:59:44.946Z,8.33
2019-01-06T16:02:35.942Z,8.80
2019-01-06T16:05:33.164Z,10.77
2019-01-06T16:08:42.067Z,9.10
2019-01-06T16:11:33.480Z,12.13
2019-01-06T16:14:23.703Z,9.93
2019-01-06T16:17:17.280Z,12.03
2019-01-06T16:20:08.163Z,13.43
2019-01-06T16:23:05.276Z,12.47
2019-01-06T16:25:53.537Z,13.30
2019-01-06T16:28:50.259Z,12.40
2019-01-06T16:31:50.452Z,12.17
2019-01-06T16:34:39.675Z,10.83
2019-01-06T16:37:38.377Z,11.37
2019-01-06T16:40:42.252Z,13.67
2019-01-06T16:43:38.123Z,12.83
2019-01-06T16:46:34.742Z,15.00
2019-01-06T16:49:29.070Z,11.03
2019-01-06T16:52:19.333Z,14.63
2019-01-06T16:55:12.752Z,15.67
2019-01-06T16:58:01.914Z,13.10
2019-01-06T17:00:51.673Z,15.47
2019-01-06T17:03:44.953Z,15.90
2019-01-06T17:06:42.096Z,17.53
2019-01-06T17:09:31.480Z,15.77
2019-01-06T17:12:25.814Z,18.00
2019-01-06T17:15:22.707Z,20.40
2019-01-06T17:18:13.238Z,16.80
2019-01-06T17:21:03.285Z,21.67
2019-01-06T17:24:15.704Z,18.73
2019-01-06T17:27:16.627Z,18.93
2019-01-06T17:30:10.417Z,18.23
2019-01-06T17:33:02.156Z,20.77
2019-01-06T17:35:42.676Z,23.37
2019-01-06T17:38:34.542Z,20.87
2019-01-06T17:41:24.999Z,21.03
2019-01-06T17:44:22.980Z,20.30
2019-01-06T17:47:18.334Z,21.63
2019-01-06T17:50:08.786Z,27.27
2019-01-06T17:53:09.470Z,22.10
2019-01-06T17:56:05.074Z,20.97
2019-01-06T17:59:01.643Z,24.67
2019-01-06T18:01:53.488Z,21.60
2019-01-06T18:04:52.014Z,25.23
2019-01-06T18:07:41.679Z,26.77
2019-01-06T18:10:33.491Z,30.47
2019-01-06T18:13:40.243Z,27.47
2019-01-06T18:16:37.834Z,27.20
2019-01-06T18:19:29.406Z,27.20
2019-01-06T18:22:18.737Z,25.17
2019-01-06T18:25:24.246Z,25.20
2019-01-06T18:28:22.947Z,24.03
2019-01-06T18:31:14.380Z,29.27
2019-01-06T18:34:00.805Z,26.77
2019-01-06T18:37:01.845Z,31.53
2019-01-06T18:40:00.557Z,28.77
2019-01-06T18:42:52.116Z,27.13
2019-01-06T18:45:47.199Z,28.67
2019-01-06T18:48:56.673Z,30.17
2019-01-06T18:51:44.468Z,24.70
2019-01-06T18:54:42.565Z,29.07
2019-01-06T18:57:40.364Z,30.40
2019-01-06T19:00:28.941Z,32.63
2019-01-06T19:03:23.694Z,33.23
2019-01-06T19:06:16.043Z,24.50
2019-01-06T19:09:27.476Z,23.60
2019-01-06T19:12:22.375Z,23.67
2019-01-06T19:15:21.156Z,29.07
2019-01-06T19:18:07.228Z,28.37
2019-01-06T19:21:00.407Z,27.73
2019-01-06T19:24:08.931Z,31.40
2019-01-06T19:26:59.510Z,29.77
2019-01-06T19:29:51.410Z,27.97
2019-01-06T19:32:51.145Z,32.40
2019-01-06T19:35:37.313Z,29.83
2019-01-06T19:38:29.417Z,30.40
2019-01-06T19:41:36.985Z,30.70
2019-01-06T19:44:27.009Z,30.23
2019-01-06T19:47:19.401Z,29.80
2019-01-06T19:50:11.933Z,28.77
2019-01-06T19:53:01.578Z,33.70
2019-01-06T19:55:51.875Z,27.83
2019-01-06T19:58:48.177Z,29.13
2019-01-06T20:01:49.332Z,32.17
2019-01-06T20:04:49.372Z,29.60
2019-01-06T20:07:57.162Z,29.80
2019-01-06T20:10:50.839Z,32.80
2019-01-06T20:13:42.530Z,32.87
2019-01-06T20:16:31.009Z,35.23
2019-01-06T20:19:15.419Z,33.73
2019-01-06T20:22:15.169Z,26.23
2019-01-06T20:25:11.426Z,30.93
2019-01-06T20:28:16.020Z,31.70
2019-01-06T20:31:18.122Z,29.23
2019-01-06T20:34:17.863Z,29.33
2019-01-06T20:37:12.788Z,23.07
2019-01-06T20:40:17.295Z,29.57
2019-01-06T20:43:25.203Z,26.53
2019-01-06T20:46:33.011Z,28.93
2019-01-06T20:49:26.044Z,27.17
2019-01-06T20:52:17.259Z,30.47
2019-01-06T20:55:08.490Z,25.77
2019-01-06T20:58:16.926Z,26.73
2019-01-06T21:01:04.969Z,28.07
2019-01-06T21:03:58.168Z,32.23
2019-01-06T21:06:46.271Z,46.67
2019-01-06T21:09:31.310Z,51.30
2019-01-06T21:12:32.331Z,66.53
2019-01-06T21:15:27.463Z,48.00
2019-01-06T21:18:28.155Z,33.37
2019-01-06T21:21:29.950Z,40.73
2019-01-06T21:24:42.652Z,45.77
2019-01-06T21:27:37.279Z,61.50
2019-01-06T21:30:29.682Z,34.77
2019-01-06T21:33:25.627Z,36.30
2019-01-06T21:36:26.424Z,41.23
2019-01-06T21:39:22.919Z,37.43
2019-01-06T21:42:13.543Z,30.43
2019-01-06T21:45:02.802Z,29.00
2019-01-06T21:48:10.942Z,28.97
2019-01-06T21:50:59.744Z,32.83
2019-01-06T21:54:03.682Z,29.40
2019-01-06T21:56:56.229Z,37.03
2019-01-06T21:59:45.846Z,30.30
2019-01-06T22:02:34.069Z,30.37
2019-01-06T22:05:22.582Z,30.67
2019-01-06T22:08:11.156Z,33.20
2019-01-06T22:11:14.776Z,33.13
2019-01-06T22:14:12.947Z,34.40
2019-01-06T22:16:58.968Z,39.67
2019-01-06T22:19:55.072Z,30.17
2019-01-06T22:22:43.626Z,43.07
2019-01-06T22:25:28.666Z,31.93
2019-01-06T22:28:28.341Z,35.30
2019-01-06T22:31:25.233Z,32.17
2019-01-06T22:34:05.572Z,34.33
2019-01-06T22:36:54.713Z,31.80
2019-01-06T22:39:51.539Z,36.93
2019-01-06T22:42:40.021Z,38.93
2019-01-06T22:45:41.880Z,42.77
2019-01-06T22:48:38.920Z,33.37
2019-01-06T22:51:32.273Z,38.87
2019-01-06T22:54:29.337Z,31.33
2019-01-06T22:57:27.972Z,34.97
2019-01-06T23:00:26.497Z,28.60
2019-01-06T23:03:32.803Z,29.47
2019-01-06T23:06:27.286Z,27.27
2019-01-06T23:09:20.586Z,33.67
2019-01-06T23:12:38.173Z,27.83
2019-01-06T23:15:40.201Z,30.57
2019-01-06T23:18:32.605Z,30.00
2019-01-06T23:21:20.965Z,27.63
2019-01-06T23:24:28.837Z,26.47
2019-01-06T23:27:23.101Z,29.27
2019-01-06T23:30:21.684Z,25.07
2019-01-06T23:33:07.046Z,28.57
2019-01-06T23:35:59.480Z,31.87
2019-01-06T23:38:48.924Z,33.33
2019-01-06T23:41:36.923Z,28.87
2019-01-06T23:44:26.363Z,27.33
2019-01-06T23:47:28.083Z,30.30
2019-01-06T23:50:26.628Z,31.10
2019-01-06T23:53:22.054Z,28.10
2019-01-06T23:56:17.381Z,32.10
2019-01-06T23:59:09.562Z,27.27
